Portada
METAR-TAF:

METAR-TAF

Aeroports :

Pikeville, Kentucky, Estats Units d'Amèrica

latitud: 37-33-42N, longitud: 082-33-59W, altitud: 449 m

Observació

L'informe es va fer fa 28 minuts, a les 12:15 UTC
Vent 3 kt del Oest/Sud-Oest
Temperatura 2°C
Humitat 100%
Pressió 1015 hPa
Visibilitat: 16.1 km
Cel cobert a una alçada de 1400 ft

METAR: KPBX 251215Z AUTO 24003KT 10SM OVC014 02/02 A2996 RMK AO2 T00200020

Hora: 07:43 (12:43 UTC)


TAF: manca

Observacions i pronòstics meteorològics de més de 4000 aeroports (METAR i TAF).

Les estacions disponibles són els punts grocs i vermells al mapa.

Posi el ratolí al punt desitjat per veure el nom de l'estació.

Feu clic per veure les observacions i els pronòstics meteorològics.

Per canviar el mapa: feu clic els botons verds amb una creu de color negre per apropar; al botó verd amb un guió per allunyar la imatge; o en les fletxes verdes per a mapes adjacents.


METAR-TAF: